createdAt,value
2023-04-13T00:00:30.703Z,98857.06
2023-04-13T00:02:58.825Z,98822.47
2023-04-13T00:05:28.779Z,98793.75
2023-04-13T00:07:57.102Z,98808.81
2023-04-13T00:10:25.353Z,98816.38
2023-04-13T00:12:53.375Z,98818.88
2023-04-13T00:15:21.269Z,98831.03
2023-04-13T00:17:51.193Z,98852.63
2023-04-13T00:20:19.188Z,98885.34
2023-04-13T00:22:48.923Z,98888.00
2023-04-13T00:25:17.645Z,98912.22
2023-04-13T00:27:45.975Z,98937.19
2023-04-13T00:30:15.769Z,98925.91
2023-04-13T00:32:45.650Z,98924.22
2023-04-13T00:35:16.702Z,98935.38
2023-04-13T00:37:47.221Z,98951.00
2023-04-13T00:40:18.005Z,98955.34
2023-04-13T00:42:46.304Z,98955.34
2023-04-13T00:45:14.698Z,98952.81
2023-04-13T00:47:46.598Z,98934.66
2023-04-13T00:50:18.715Z,98961.34
2023-04-13T00:52:48.250Z,98974.69
2023-04-13T00:55:21.545Z,98993.38
2023-04-13T00:57:52.945Z,98991.72
2023-04-13T01:00:21.959Z,98982.22
2023-04-13T01:02:50.713Z,98974.69
2023-04-13T01:05:18.812Z,98959.06
2023-04-13T01:07:55.567Z,98971.06
2023-04-13T01:10:31.987Z,98970.09
2023-04-13T01:13:09.652Z,98990.03
2023-04-13T01:15:40.732Z,99018.47
2023-04-13T01:18:11.099Z,99015.97
2023-04-13T01:20:42.636Z,99003.97
2023-04-13T01:23:28.525Z,98974.31
2023-04-13T01:26:00.522Z,98970.22
2023-04-13T01:28:31.075Z,98958.31
2023-04-13T01:31:00.497Z,98936.72
2023-04-13T01:33:30.468Z,98953.03
2023-04-13T01:36:00.732Z,98942.72
2023-04-13T01:38:28.821Z,98952.34
2023-04-13T01:40:57.322Z,98956.53
2023-04-13T01:43:27.145Z,98964.22
2023-04-13T01:46:00.966Z,98987.50
2023-04-13T01:48:35.603Z,99005.19
2023-04-13T01:51:09.539Z,99041.19
2023-04-13T01:53:41.375Z,99048.84
2023-04-13T01:56:12.984Z,99074.78
2023-04-13T01:58:41.857Z,99074.78
2023-04-13T02:01:12.795Z,99098.25
2023-04-13T02:03:43.427Z,99108.69
2023-04-13T02:06:12.015Z,99142.34
2023-04-13T02:08:40.559Z,99156.16
2023-04-13T02:11:08.886Z,99168.53
2023-04-13T02:13:36.994Z,99205.56
2023-04-13T02:16:06.792Z,99207.25
2023-04-13T02:18:36.400Z,99218.78
2023-04-13T02:21:09.356Z,99279.84
2023-04-13T02:23:38.316Z,99299.56
2023-04-13T02:26:08.630Z,99339.66
2023-04-13T02:28:36.514Z,99348.19
2023-04-13T02:31:05.908Z,99352.38
2023-04-13T02:33:34.112Z,99345.31
2023-04-13T02:36:04.840Z,99363.56
2023-04-13T02:38:34.139Z,99394.84
2023-04-13T02:41:02.641Z,99405.19
2023-04-13T02:43:30.644Z,99396.78
2023-04-13T02:45:59.645Z,99410.50
2023-04-13T02:48:28.255Z,99413.13
2023-04-13T02:50:56.337Z,99386.44
2023-04-13T02:53:26.070Z,99357.81
2023-04-13T02:55:54.903Z,99337.25
2023-04-13T02:58:23.893Z,99325.81
2023-04-13T03:00:52.055Z,99345.78
2023-04-13T03:03:20.425Z,99370.78
2023-04-13T03:05:50.769Z,99379.56
2023-04-13T03:08:18.951Z,99377.78
2023-04-13T03:10:48.038Z,99381.25
2023-04-13T03:13:16.243Z,99372.72
2023-04-13T03:15:44.002Z,99379.69
2023-04-13T03:18:11.804Z,99355.41
2023-04-13T03:20:39.757Z,99343.38
2023-04-13T03:23:07.560Z,99329.88
2023-04-13T03:25:35.504Z,99325.19
2023-04-13T03:28:04.917Z,99326.03
2023-04-13T03:30:32.746Z,99356.38
2023-04-13T03:33:00.544Z,99353.72
2023-04-13T03:35:28.377Z,99362.38
2023-04-13T03:37:56.340Z,99371.03
2023-04-13T03:40:24.250Z,99379.69
2023-04-13T03:42:51.975Z,99392.69
2023-04-13T03:45:21.209Z,99409.06
2023-04-13T03:47:49.042Z,99436.84
2023-04-13T03:50:17.030Z,99416.03
2023-04-13T03:52:44.827Z,99414.34
2023-04-13T03:55:13.172Z,99387.66
2023-04-13T03:57:41.005Z,99391.97
2023-04-13T04:00:14.236Z,99361.19
2023-04-13T04:02:44.015Z,99375.38
2023-04-13T04:05:12.150Z,99371.28
2023-04-13T04:07:40.075Z,99379.09
2023-04-13T04:10:09.374Z,99373.81
2023-04-13T04:12:37.221Z,99365.28
2023-04-13T04:15:05.991Z,99359.25
2023-04-13T04:17:33.773Z,99343.84
2023-04-13T04:20:03.763Z,99299.59
2023-04-13T04:22:34.867Z,99235.63
2023-04-13T04:25:02.798Z,99240.81
2023-04-13T04:27:31.412Z,99246.94
2023-04-13T04:30:01.006Z,99246.94
2023-04-13T04:32:28.846Z,99234.88
2023-04-13T04:34:56.679Z,99241.84
2023-04-13T04:37:26.214Z,99229.59
2023-04-13T04:39:56.004Z,99248.63
2023-04-13T04:42:23.803Z,99250.53
2023-04-13T04:44:51.571Z,99243.78
2023-04-13T04:47:19.866Z,99237.53
2023-04-13T04:49:47.675Z,99258.22
2023-04-13T04:52:15.875Z,99240.91
2023-04-13T04:54:44.992Z,99233.19
2023-04-13T04:57:14.501Z,99210.59
2023-04-13T04:59:42.387Z,99195.09
2023-04-13T05:02:10.341Z,99225.41
2023-04-13T05:04:38.386Z,99252.22
2023-04-13T05:07:06.326Z,99271.22
2023-04-13T05:09:34.975Z,99254.03
2023-04-13T05:12:04.974Z,99294.19
2023-04-13T05:14:32.720Z,99322.31
2023-04-13T05:17:01.430Z,99313.66
2023-04-13T05:19:29.343Z,99330.13
2023-04-13T05:21:57.428Z,99340.47
2023-04-13T05:24:25.167Z,99362.03
2023-04-13T05:26:53.129Z,99361.41
2023-04-13T05:29:22.304Z,99310.16
2023-04-13T05:31:50.067Z,99286.00
2023-04-13T05:34:18.347Z,99267.84
2023-04-13T05:36:46.079Z,99323.41
2023-04-13T05:39:13.959Z,99319.78
2023-04-13T05:41:41.739Z,99357.06
2023-04-13T05:44:09.537Z,99376.94
2023-04-13T05:46:38.720Z,99376.09
2023-04-13T05:49:06.556Z,99324.63
2023-04-13T05:51:35.586Z,99255.09
2023-04-13T05:54:03.623Z,99208.47
2023-04-13T05:56:31.679Z,99205.81
2023-04-13T05:59:01.120Z,99231.06
2023-04-13T06:01:29.720Z,99206.66
2023-04-13T06:03:59.685Z,99256.91
2023-04-13T06:06:27.973Z,99248.13
2023-04-13T06:08:55.701Z,99214.47
2023-04-13T06:11:24.777Z,99227.69
2023-04-13T06:13:52.520Z,99269.78
2023-04-13T06:16:20.488Z,99279.41
2023-04-13T06:18:48.409Z,99265.56
2023-04-13T06:21:17.860Z,99309.69
2023-04-13T06:23:45.876Z,99336.50
2023-04-13T06:26:13.646Z,99394.41
2023-04-13T06:28:42.876Z,99416.78
2023-04-13T06:31:13.774Z,99521.63
2023-04-13T06:33:41.912Z,99595.94
2023-04-13T06:36:10.496Z,99677.66
2023-04-13T06:38:39.622Z,99701.03
2023-04-13T06:41:07.776Z,99712.22
2023-04-13T06:43:35.833Z,99787.59
2023-04-13T06:46:04.706Z,99870.13
2023-04-13T06:48:32.465Z,99871.81
2023-04-13T06:51:00.467Z,99804.13
2023-04-13T06:53:28.338Z,99817.97
2023-04-13T06:55:57.577Z,99845.97
2023-04-13T06:58:25.666Z,99745.28
2023-04-13T07:00:53.472Z,99713.31
2023-04-13T07:03:21.466Z,99641.38
2023-04-13T07:05:49.391Z,99604.84
2023-04-13T07:08:19.177Z,99642.22
2023-04-13T07:10:47.513Z,99594.94
2023-04-13T07:13:18.791Z,99601.56
2023-04-13T07:15:46.920Z,99633.78
2023-04-13T07:18:14.818Z,99621.50
2023-04-13T07:20:44.219Z,99640.53
2023-04-13T07:23:12.637Z,99428.31
2023-04-13T07:25:40.366Z,99465.63
2023-04-13T07:28:08.145Z,99384.25
2023-04-13T07:30:37.449Z,99395.47
2023-04-13T07:33:05.392Z,99382.56
2023-04-13T07:35:33.648Z,99401.63
2023-04-13T07:38:01.472Z,99395.47
2023-04-13T07:40:29.367Z,99427.34
2023-04-13T07:42:57.213Z,99577.25
2023-04-13T07:45:25.041Z,99779.16
2023-04-13T07:47:54.843Z,99866.84
2023-04-13T07:50:23.175Z,99972.91
2023-04-13T07:52:51.025Z,99982.34
2023-04-13T07:55:18.796Z,99866.97
2023-04-13T07:57:46.655Z,99881.69
2023-04-13T08:00:17.058Z,99934.53
2023-04-13T08:02:46.050Z,100104.69
2023-04-13T08:05:16.784Z,100180.19
2023-04-13T08:07:46.595Z,100072.66
2023-04-13T08:10:18.422Z,99944.19
2023-04-13T08:12:46.203Z,99918.13
2023-04-13T08:15:14.337Z,99959.75
2023-04-13T08:17:42.282Z,100210.16
2023-04-13T08:20:10.682Z,100518.84
2023-04-13T08:22:40.260Z,100619.03
2023-04-13T08:25:08.717Z,100805.50
2023-04-13T08:27:36.518Z,101001.97
2023-04-13T08:30:07.453Z,100948.66
2023-04-13T08:32:35.500Z,100914.91
2023-04-13T08:35:06.884Z,100679.38
2023-04-13T08:37:34.855Z,100492.06
2023-04-13T08:40:07.495Z,100354.38
2023-04-13T08:42:35.510Z,100312.91
2023-04-13T08:45:04.802Z,100264.09
2023-04-13T08:47:32.693Z,100280.75
2023-04-13T08:50:01.733Z,100423.31
2023-04-13T08:52:30.139Z,100441.91
2023-04-13T08:55:00.936Z,100479.00
2023-04-13T08:57:30.863Z,100443.38
2023-04-13T09:00:00.239Z,100430.31
2023-04-13T09:02:33.862Z,100396.44
2023-04-13T09:05:06.190Z,100460.00
2023-04-13T09:07:36.954Z,100379.03
2023-04-13T09:10:06.573Z,100532.88
2023-04-13T09:12:36.737Z,100631.47
2023-04-13T09:15:07.277Z,100641.78
2023-04-13T09:17:35.617Z,100570.56
2023-04-13T09:20:15.037Z,100508.66
2023-04-13T09:22:43.776Z,100425.22
2023-04-13T09:25:26.160Z,100416.50
2023-04-13T09:27:56.338Z,100321.63
2023-04-13T09:30:25.776Z,100253.69
2023-04-13T09:33:05.218Z,100234.69
2023-04-13T09:35:33.828Z,100174.63
2023-04-13T09:38:02.070Z,100196.59
2023-04-13T09:40:30.193Z,100117.28
2023-04-13T09:43:01.094Z,100208.69
2023-04-13T09:45:35.954Z,100298.16
2023-04-13T09:48:04.388Z,100556.72
2023-04-13T09:50:34.825Z,100665.50
2023-04-13T09:53:04.323Z,100715.22
2023-04-13T09:55:33.779Z,100599.47
2023-04-13T09:58:11.800Z,100630.63
2023-04-13T10:00:40.136Z,100500.06
2023-04-13T10:03:12.090Z,100431.28
2023-04-13T10:05:55.347Z,100400.06
2023-04-13T10:11:01.346Z,100297.31
2023-04-13T10:13:39.236Z,100217.38
2023-04-13T10:16:31.892Z,100196.59
2023-04-13T10:19:03.620Z,100093.16
2023-04-13T10:21:35.635Z,99978.56
2023-04-13T10:24:11.232Z,99889.88
2023-04-13T10:26:40.206Z,99895.91
2023-04-13T10:29:11.779Z,99904.84
2023-04-13T10:31:40.554Z,99937.66
2023-04-13T10:34:08.745Z,99987.84
2023-04-13T10:36:39.355Z,99990.63
2023-04-13T10:39:08.337Z,99966.38
2023-04-13T10:41:36.692Z,100032.06
2023-04-13T10:44:05.694Z,100318.22
2023-04-13T10:46:36.150Z,100542.66
2023-04-13T10:49:05.651Z,100693.41
2023-04-13T10:51:41.028Z,100607.13
2023-04-13T10:54:09.818Z,100621.38
2023-04-13T10:56:38.658Z,100420.13
2023-04-13T10:59:06.433Z,100299.13
2023-04-13T11:01:35.963Z,100219.06
2023-04-13T11:04:06.773Z,100138.34
2023-04-13T11:06:39.057Z,100013.22
2023-04-13T11:09:08.157Z,99910.03
2023-04-13T11:11:37.743Z,99882.16
2023-04-13T11:14:05.634Z,99846.66
2023-04-13T11:16:33.343Z,99772.13
2023-04-13T11:19:06.155Z,99645.69
2023-04-13T11:21:35.445Z,99577.13
2023-04-13T11:24:03.955Z,99492.34
2023-04-13T11:26:33.838Z,99457.69
2023-04-13T11:29:01.869Z,99402.06
2023-04-13T11:31:39.954Z,99295.50
2023-04-13T11:34:11.091Z,99298.50
2023-04-13T11:36:39.843Z,99238.88
2023-04-13T11:39:10.761Z,99202.59
2023-04-13T11:41:42.527Z,99200.88
2023-04-13T11:44:12.279Z,99129.41
2023-04-13T11:46:40.141Z,99040.28
2023-04-13T11:49:09.378Z,99026.50
2023-04-13T11:51:38.965Z,99047.00
2023-04-13T11:54:08.099Z,99065.25
2023-04-13T11:56:36.025Z,99098.19
2023-04-13T11:59:03.861Z,99071.38
2023-04-13T12:01:34.450Z,99048.94
2023-04-13T12:04:15.032Z,99001.28
2023-04-13T12:06:47.668Z,98941.97
2023-04-13T12:09:17.924Z,98951.22
2023-04-13T12:12:12.020Z,98927.94
2023-04-13T12:17:37.674Z,98897.13
2023-04-13T12:20:03.930Z,98882.38
2023-04-13T12:22:52.304Z,98894.59
2023-04-13T12:25:35.686Z,98888.38
2023-04-13T12:28:04.568Z,98912.47
2023-04-13T12:30:34.189Z,98844.44
2023-04-13T12:33:02.233Z,98807.28
2023-04-13T12:35:30.066Z,98813.53
2023-04-13T12:38:00.358Z,98777.91
2023-04-13T12:40:28.200Z,98750.47
2023-04-13T12:42:55.980Z,98699.63
2023-04-13T12:45:23.768Z,98671.22
2023-04-13T12:47:51.980Z,98673.00
2023-04-13T12:50:19.836Z,98634.19
2023-04-13T12:52:47.611Z,98621.38
2023-04-13T12:55:17.156Z,98570.75
2023-04-13T12:57:45.515Z,98553.25
2023-04-13T13:00:15.803Z,98518.75
2023-04-13T13:02:43.919Z,98471.59
2023-04-13T13:05:11.999Z,98438.13
2023-04-13T13:07:39.811Z,98433.94
2023-04-13T13:10:25.967Z,98431.19
2023-04-13T13:12:58.014Z,98418.34
2023-04-13T13:15:26.119Z,98347.94
2023-04-13T13:17:54.337Z,98319.47
2023-04-13T13:20:22.730Z,98320.19
2023-04-13T13:22:50.469Z,98292.78
2023-04-13T13:25:18.244Z,98278.22
2023-04-13T13:30:18.392Z,98310.88
2023-04-13T13:32:46.152Z,98286.69
2023-04-13T13:35:15.547Z,98278.22
2023-04-13T13:37:43.453Z,98269.88
2023-04-13T13:40:14.060Z,98256.69
2023-04-13T13:42:51.202Z,98245.72
2023-04-13T13:45:21.997Z,98210.47
2023-04-13T13:47:53.630Z,98214.78
2023-04-13T13:50:22.222Z,98187.97
2023-04-13T13:53:03.296Z,98175.91
2023-04-13T13:55:32.569Z,98177.00
2023-04-13T13:58:00.533Z,98198.28
2023-04-13T14:00:29.818Z,98212.97
2023-04-13T14:02:58.014Z,98226.72
2023-04-13T14:05:26.485Z,98222.41
2023-04-13T14:07:54.259Z,98196.84
2023-04-13T14:10:22.216Z,98162.00
2023-04-13T14:12:51.008Z,98180.59
2023-04-13T14:15:19.364Z,98167.56
2023-04-13T14:17:58.692Z,98164.09
2023-04-13T14:20:34.875Z,98118.63
2023-04-13T14:23:02.648Z,98087.69
2023-04-13T14:25:30.407Z,98104.88
2023-04-13T14:27:58.251Z,98101.44
2023-04-13T14:30:27.954Z,98086.13
2023-04-13T14:32:57.578Z,98106.81
2023-04-13T14:35:25.889Z,98057.84
2023-04-13T14:37:53.639Z,98059.78
2023-04-13T14:40:23.303Z,98085.31
2023-04-13T14:42:53.059Z,98112.78
2023-04-13T14:45:21.717Z,98114.44
2023-04-13T14:47:49.802Z,98111.81
2023-04-13T14:50:19.606Z,98123.03
2023-04-13T14:52:48.366Z,98112.78
2023-04-13T14:55:16.536Z,98096.28
2023-04-13T14:57:44.612Z,98080.72
2023-04-13T15:00:21.228Z,98087.09
2023-04-13T15:02:50.259Z,98046.19
2023-04-13T15:05:19.873Z,97990.06
2023-04-13T15:07:48.506Z,97991.03
2023-04-13T15:10:17.931Z,97952.34
2023-04-13T15:12:45.898Z,97954.97
2023-04-13T15:15:13.861Z,97945.69
2023-04-13T15:17:41.894Z,97950.69
2023-04-13T15:20:10.813Z,97967.88
2023-04-13T15:22:40.006Z,97942.09
2023-04-13T15:25:08.523Z,97957.75
2023-04-13T15:27:36.392Z,97943.75
2023-04-13T15:30:04.530Z,97976.47
2023-04-13T15:32:35.070Z,97959.28
2023-04-13T15:35:03.465Z,97991.13
2023-04-13T15:37:31.403Z,97995.34
2023-04-13T15:40:01.458Z,97973.81
2023-04-13T15:42:29.457Z,97964.09
2023-04-13T15:44:57.191Z,97992.84
2023-04-13T15:47:25.110Z,97992.25
2023-04-13T15:49:52.894Z,98017.78
2023-04-13T15:52:20.778Z,97998.66
2023-04-13T15:54:48.569Z,97997.84
2023-04-13T15:57:18.071Z,98036.63
2023-04-13T15:59:45.796Z,98057.16
2023-04-13T16:02:13.645Z,98000.72
2023-04-13T16:04:41.731Z,97956.78
2023-04-13T16:07:14.358Z,97986.72
2023-04-13T16:09:44.838Z,98030.66
2023-04-13T16:12:12.802Z,98019.44
2023-04-13T16:14:45.154Z,98019.97
2023-04-13T16:17:15.133Z,98046.19
2023-04-13T16:19:47.339Z,98018.34
2023-04-13T16:22:16.299Z,98029.69
2023-04-13T16:24:44.115Z,98071.84
2023-04-13T16:27:12.089Z,98083.75
2023-04-13T16:29:43.430Z,98115.69
2023-04-13T16:32:11.606Z,98092.34
2023-04-13T16:34:39.394Z,98125.09
2023-04-13T16:37:07.476Z,98067.94
2023-04-13T16:39:35.222Z,98053.81
2023-04-13T16:42:03.384Z,98078.06
2023-04-13T16:44:31.210Z,98059.06
2023-04-13T16:47:01.094Z,98047.84
2023-04-13T16:49:28.949Z,98030.94
2023-04-13T16:51:56.884Z,98026.50
2023-04-13T16:54:25.143Z,97977.56
2023-04-13T16:56:52.897Z,97971.47
2023-04-13T16:59:20.940Z,97989.59
2023-04-13T17:01:48.813Z,97975.06
2023-04-13T17:04:18.071Z,97983.66
2023-04-13T17:06:47.362Z,97978.53
2023-04-13T17:09:15.429Z,97934.03
2023-04-13T17:11:43.289Z,97927.53
2023-04-13T17:14:11.145Z,97933.09
2023-04-13T17:16:39.095Z,97954.53
2023-04-13T17:19:07.331Z,97937.63
2023-04-13T17:21:36.553Z,97932.13
2023-04-13T17:24:04.567Z,97939.31
2023-04-13T17:26:32.473Z,97927.13
2023-04-13T17:29:00.727Z,97927.13
2023-04-13T17:31:28.765Z,97922.97
2023-04-13T17:33:56.553Z,97896.94
2023-04-13T17:36:24.397Z,97883.31
2023-04-13T17:38:53.563Z,97862.84
2023-04-13T17:41:21.421Z,97879.16
2023-04-13T17:43:49.380Z,97883.47
2023-04-13T17:46:17.213Z,97894.69
2023-04-13T17:48:45.117Z,97877.50
2023-04-13T17:51:12.970Z,97857.72
2023-04-13T17:53:41.060Z,97860.34
2023-04-13T17:56:15.380Z,97841.50
2023-04-13T17:58:43.280Z,97868.09
2023-04-13T18:01:12.065Z,97842.34
2023-04-13T18:03:40.181Z,97836.50
2023-04-13T18:06:08.685Z,97838.19
2023-04-13T18:08:36.619Z,97832.09
2023-04-13T18:11:04.646Z,97803.84
2023-04-13T18:13:34.374Z,97791.91
2023-04-13T18:16:02.476Z,97799.44
2023-04-13T18:18:30.693Z,97796.94
2023-04-13T18:20:58.539Z,97795.28
2023-04-13T18:23:26.424Z,97780.00
2023-04-13T18:25:54.456Z,97805.78
2023-04-13T18:28:22.373Z,97776.41
2023-04-13T18:30:51.500Z,97784.03
2023-04-13T18:33:19.597Z,97822.13
2023-04-13T18:35:47.333Z,97808.97
2023-04-13T18:38:15.154Z,97793.59
2023-04-13T18:40:43.380Z,97785.97
2023-04-13T18:43:11.188Z,97810.78
2023-04-13T18:45:39.226Z,97814.09
2023-04-13T18:48:09.748Z,97829.59
2023-04-13T18:50:40.623Z,97819.34
2023-04-13T18:53:08.545Z,97833.19
2023-04-13T18:55:36.410Z,97798.09
2023-04-13T18:58:04.437Z,97816.72
2023-04-13T19:00:32.726Z,97827.94
2023-04-13T19:03:01.128Z,97808.28
2023-04-13T19:05:32.132Z,97809.38
2023-04-13T19:08:01.095Z,97809.09
2023-04-13T19:10:29.148Z,97794.44
2023-04-13T19:12:57.234Z,97774.75
2023-04-13T19:15:25.190Z,97773.09
2023-04-13T19:17:53.396Z,97785.97
2023-04-13T19:20:23.263Z,97729.63
2023-04-13T19:22:52.948Z,97775.72
2023-04-13T19:25:20.984Z,97776.56
2023-04-13T19:27:50.302Z,97789.41
2023-04-13T19:30:19.773Z,97779.88
2023-04-13T19:32:51.487Z,97791.09
2023-04-13T19:35:26.288Z,97782.50
2023-04-13T19:37:56.421Z,97788.03
2023-04-13T19:40:26.218Z,97813.53
2023-04-13T19:42:54.670Z,97788.59
2023-04-13T19:45:22.478Z,97788.59
2023-04-13T19:47:52.111Z,97802.44
2023-04-13T19:50:19.974Z,97807.44
2023-04-13T19:52:49.668Z,97790.25
2023-04-13T19:55:19.051Z,97792.19
2023-04-13T19:57:47.133Z,97773.38
2023-04-13T20:00:20.018Z,97747.88
2023-04-13T20:02:49.663Z,97733.78
2023-04-13T20:05:18.985Z,97739.88
2023-04-13T20:07:46.804Z,97733.78
2023-04-13T20:10:14.624Z,97746.66
2023-04-13T20:12:43.759Z,97739.03
2023-04-13T20:15:11.812Z,97747.50
2023-04-13T20:17:39.752Z,97727.16
2023-04-13T20:20:10.746Z,97699.75
2023-04-13T20:22:39.365Z,97693.78
2023-04-13T20:25:09.165Z,97682.56
2023-04-13T20:27:41.862Z,97672.06
2023-04-13T20:30:12.439Z,97655.31
2023-04-13T20:32:40.529Z,97657.69
2023-04-13T20:35:09.494Z,97647.72
2023-04-13T20:37:37.448Z,97655.19
2023-04-13T20:40:06.932Z,97649.94
2023-04-13T20:42:34.981Z,97663.75
2023-04-13T20:45:04.872Z,97652.97
2023-04-13T20:47:35.682Z,97646.88
2023-04-13T20:50:04.858Z,97654.09
2023-04-13T20:52:32.634Z,97661.97
2023-04-13T20:55:00.429Z,97645.66
2023-04-13T20:57:28.298Z,97648.41
2023-04-13T20:59:56.257Z,97659.34
2023-04-13T21:02:24.259Z,97670.69
2023-04-13T21:04:53.934Z,97663.75
2023-04-13T21:07:22.279Z,97688.66
2023-04-13T21:09:50.095Z,97703.34
2023-04-13T21:12:17.966Z,97703.09
2023-04-13T21:14:45.707Z,97734.75
2023-04-13T21:17:14.142Z,97760.63
2023-04-13T21:19:42.566Z,97760.91
2023-04-13T21:22:11.829Z,97785.25
2023-04-13T21:24:39.631Z,97801.03
2023-04-13T21:27:07.386Z,97825.84
2023-04-13T21:29:35.196Z,97835.13
2023-04-13T21:32:04.298Z,97854.22
2023-04-13T21:34:34.022Z,97856.72
2023-04-13T21:37:03.207Z,97857.53
2023-04-13T21:39:32.555Z,97861.84
2023-04-13T21:42:00.366Z,97889.38
2023-04-13T21:44:30.048Z,97891.88
2023-04-13T21:46:58.458Z,97883.28
2023-04-13T21:49:26.402Z,97912.38
2023-04-13T21:51:54.256Z,97927.88
2023-04-13T21:54:22.485Z,97939.84
2023-04-13T21:56:51.662Z,97937.34
2023-04-13T21:59:19.428Z,97952.84
2023-04-13T22:01:47.689Z,97939.84
2023-04-13T22:04:15.786Z,97970.84
2023-04-13T22:06:43.575Z,97975.97
2023-04-13T22:09:12.227Z,97971.56
2023-04-13T22:11:40.912Z,97962.25
2023-04-13T22:14:10.353Z,97953.69
2023-04-13T22:16:38.084Z,97967.53
2023-04-13T22:19:05.942Z,97963.22
2023-04-13T22:21:35.892Z,97971.69
2023-04-13T22:24:03.734Z,97978.34
2023-04-13T22:26:31.614Z,97989.69
2023-04-13T22:28:59.753Z,98003.53
2023-04-13T22:31:29.105Z,97984.69
2023-04-13T22:33:57.433Z,97976.94
2023-04-13T22:36:25.235Z,97971.69
2023-04-13T22:38:54.455Z,97960.59
2023-04-13T22:41:22.288Z,97974.44
2023-04-13T22:43:50.114Z,97942.78
2023-04-13T22:46:18.573Z,97971.81
2023-04-13T22:48:48.216Z,97977.78
2023-04-13T22:51:16.401Z,97994.13
2023-04-13T22:53:44.186Z,97969.19
2023-04-13T22:56:11.882Z,97976.13
2023-04-13T22:58:39.654Z,97967.53
2023-04-13T23:01:07.436Z,97983.03
2023-04-13T23:03:35.888Z,97974.44
2023-04-13T23:06:06.986Z,98008.69
2023-04-13T23:08:34.808Z,97998.28
2023-04-13T23:11:08.826Z,98001.88
2023-04-13T23:13:36.794Z,98003.53
2023-04-13T23:16:05.861Z,98006.03
2023-04-13T23:18:33.760Z,98031.25
2023-04-13T23:21:10.940Z,98001.19
2023-04-13T23:23:39.150Z,98006.19
2023-04-13T23:26:07.302Z,97992.47
2023-04-13T23:28:35.251Z,97968.06
2023-04-13T23:31:06.334Z,97989.00
2023-04-13T23:33:34.099Z,97989.97
2023-04-13T23:36:02.400Z,97998.28
2023-04-13T23:38:33.069Z,98005.47
2023-04-13T23:41:01.020Z,97993.28
2023-04-13T23:43:28.755Z,97975.41
2023-04-13T23:45:57.051Z,97964.19
2023-04-13T23:48:26.226Z,97955.59
2023-04-13T23:50:54.517Z,97977.22
2023-04-13T23:53:23.155Z,97989.13
2023-04-13T23:55:52.335Z,97977.06
2023-04-13T23:58:20.040Z,97997.84
